Time;durP1;ratioP1;P1;durP2;ratioP2;P2;SDS_P1;SDS_P2;PMS_P1;PMS_P2;Temp;Humidity;BMP_temperature;BMP_pressure;BME280_temperature;BME280_humidity;BME280_pressure;Samples;Min_cycle;Max_cycle;Signal;HPM_P1;HPM_P2
2023/03/09 00:00:22;;;;;;;8.50;6.18;;;2.20;99.90;;;;;;5084629;28;20053;-71
2023/03/09 00:02:48;;;;;;;8.48;6.13;;;2.20;99.90;;;;;;5035483;28;20077;-72
2023/03/09 00:05:20;;;;;;;8.30;6.03;;;2.20;99.90;;;;;;5049962;28;20506;-68
2023/03/09 00:07:46;;;;;;;9.30;6.20;;;2.20;99.90;;;;;;5035098;28;20048;-72
2023/03/09 00:10:14;;;;;;;8.20;6.50;;;2.20;99.90;;;;;;5035146;28;20056;-70
2023/03/09 00:12:40;;;;;;;7.28;6.05;;;2.20;99.90;;;;;;5051437;28;20036;-71
2023/03/09 00:15:07;;;;;;;11.02;6.63;;;2.10;99.90;;;;;;5035605;28;20103;-69
2023/03/09 00:17:32;;;;;;;8.50;6.07;;;2.10;99.90;;;;;;5048538;28;20052;-73
2023/03/09 00:20:14;;;;;;;8.45;6.57;;;2.10;99.90;;;;;;5051664;28;20045;-68
2023/03/09 00:22:40;;;;;;;9.10;6.47;;;2.10;99.90;;;;;;5050926;28;20033;-74
2023/03/09 00:25:06;;;;;;;9.85;6.03;;;2.00;99.90;;;;;;5050939;28;20044;-70
2023/03/09 00:27:32;;;;;;;10.32;6.38;;;2.00;99.90;;;;;;5050980;28;20480;-68
2023/03/09 00:29:58;;;;;;;8.05;6.28;;;2.00;99.90;;;;;;5052964;28;20044;-68
2023/03/09 00:32:23;;;;;;;8.55;6.30;;;2.00;99.90;;;;;;5051566;28;20436;-72
2023/03/09 00:34:49;;;;;;;10.13;6.35;;;2.00;99.90;;;;;;5051056;28;20041;-70
2023/03/09 00:37:15;;;;;;;7.15;5.90;;;1.90;99.90;;;;;;5050827;28;20041;-71
2023/03/09 00:39:40;;;;;;;8.70;6.55;;;2.00;99.90;;;;;;5053164;28;20041;-70
2023/03/09 00:42:06;;;;;;;8.63;6.47;;;2.00;99.90;;;;;;5051415;28;20040;-70
2023/03/09 00:44:31;;;;;;;7.57;6.47;;;2.00;99.90;;;;;;5050921;28;20033;-69
2023/03/09 00:46:57;;;;;;;9.57;6.53;;;2.00;99.90;;;;;;5035128;28;20049;-73
2023/03/09 00:49:23;;;;;;;8.80;7.22;;;2.00;99.90;;;;;;5051415;28;20033;-68
2023/03/09 00:51:48;;;;;;;8.45;6.63;;;1.90;99.90;;;;;;5048136;28;20444;-72
2023/03/09 00:54:14;;;;;;;7.97;6.40;;;1.90;99.90;;;;;;5032656;28;20098;-70
2023/03/09 00:56:41;;;;;;;8.77;6.35;;;1.90;99.90;;;;;;5059233;28;20404;-73
2023/03/09 00:59:06;;;;;;;10.65;6.47;;;1.90;99.90;;;;;;5036062;28;20044;-72
2023/03/09 01:01:32;;;;;;;8.93;7.05;;;1.90;99.90;;;;;;5051096;28;20049;-69
2023/03/09 01:03:58;;;;;;;9.52;7.18;;;1.80;99.90;;;;;;5050350;28;20103;-72
2023/03/09 01:06:24;;;;;;;8.63;7.07;;;1.80;99.90;;;;;;5034722;28;20056;-70
2023/03/09 01:08:50;;;;;;;9.88;7.15;;;1.80;99.90;;;;;;5048274;28;20046;-70
2023/03/09 01:11:17;;;;;;;8.07;6.65;;;1.80;99.90;;;;;;5050339;28;20044;-72
2023/03/09 01:13:43;;;;;;;10.10;7.50;;;1.80;99.90;;;;;;5050147;28;20106;-68
2023/03/09 01:16:09;;;;;;;10.32;7.50;;;1.80;99.90;;;;;;5048145;28;20107;-71
2023/03/09 01:18:35;;;;;;;10.70;7.75;;;1.80;99.90;;;;;;5050599;28;20114;-72
2023/03/09 01:21:01;;;;;;;11.55;8.57;;;1.80;99.90;;;;;;5051134;28;20047;-70
2023/03/09 01:23:27;;;;;;;10.95;8.43;;;1.70;99.90;;;;;;5048978;28;20037;-72
2023/03/09 01:25:53;;;;;;;10.98;8.23;;;1.70;99.90;;;;;;5050722;28;20041;-70
2023/03/09 01:28:18;;;;;;;11.85;8.10;;;1.70;99.90;;;;;;5048616;28;20036;-71
2023/03/09 01:30:44;;;;;;;12.18;7.82;;;1.70;99.90;;;;;;5050624;28;20110;-70
2023/03/09 01:33:10;;;;;;;12.57;9.25;;;1.70;99.90;;;;;;5045710;28;20479;-74
2023/03/09 01:35:38;;;;;;;12.38;9.40;;;1.60;99.90;;;;;;5039734;28;20037;-69
2023/03/09 01:38:04;;;;;;;12.07;9.30;;;1.60;99.90;;;;;;5050197;28;20087;-69
2023/03/09 01:40:30;;;;;;;13.10;9.50;;;1.60;99.90;;;;;;5047021;28;20629;-69
2023/03/09 01:43:21;;;;;;;13.02;8.88;;;1.60;99.90;;;;;;5046083;28;20036;-71
2023/03/09 01:45:47;;;;;;;13.35;9.40;;;1.60;99.90;;;;;;5047453;28;20048;-74
2023/03/09 01:48:12;;;;;;;12.77;9.25;;;1.50;99.90;;;;;;5049170;28;20041;-71
2023/03/09 01:50:39;;;;;;;12.93;9.70;;;1.50;99.90;;;;;;5049100;28;20032;-74
2023/03/09 01:53:10;;;;;;;11.65;9.05;;;1.50;99.90;;;;;;5049999;28;20380;-71
2023/03/09 01:55:45;;;;;;;11.43;8.68;;;1.50;99.90;;;;;;5032210;28;20048;-71
2023/03/09 01:58:20;;;;;;;12.48;8.93;;;1.50;99.90;;;;;;5048897;28;20071;-69
2023/03/09 02:00:48;;;;;;;13.23;8.73;;;1.50;99.90;;;;;;5048084;28;20143;-70
2023/03/09 02:03:26;;;;;;;11.60;8.55;;;1.50;99.90;;;;;;5048617;28;20041;-70
2023/03/09 02:06:01;;;;;;;11.45;8.45;;;1.50;99.90;;;;;;5051469;28;20086;-71
2023/03/09 02:08:28;;;;;;;12.43;8.65;;;1.50;99.90;;;;;;5032734;28;20045;-68
2023/03/09 02:11:00;;;;;;;11.60;8.77;;;1.40;99.90;;;;;;5031774;28;20102;-69
2023/03/09 02:13:30;;;;;;;11.02;7.95;;;1.50;99.90;;;;;;5048670;28;20045;-68
2023/03/09 02:15:56;;;;;;;11.68;8.50;;;1.40;99.90;;;;;;5048622;28;20052;-68
2023/03/09 02:18:24;;;;;;;11.57;8.40;;;1.40;99.90;;;;;;5049613;28;20090;-72
2023/03/09 02:21:21;;;;;;;11.73;8.80;;;1.50;99.90;;;;;;5071608;28;20163;-70
2023/03/09 02:24:09;;;;;;;12.45;8.43;;;1.50;99.90;;;;;;5048384;28;20106;-70
2023/03/09 02:26:42;;;;;;;11.77;8.45;;;1.50;99.90;;;;;;5032130;28;20064;-68
2023/03/09 02:29:08;;;;;;;12.88;8.77;;;1.40;99.90;;;;;;5049761;28;20127;-72
2023/03/09 02:31:34;;;;;;;11.02;8.05;;;1.40;99.90;;;;;;5048215;28;20476;-69
2023/03/09 02:34:00;;;;;;;11.05;8.70;;;1.40;99.90;;;;;;5049712;28;20051;-69
2023/03/09 02:36:26;;;;;;;12.07;8.80;;;1.40;99.90;;;;;;5046548;28;20104;-69
2023/03/09 02:38:51;;;;;;;11.13;8.73;;;1.50;99.90;;;;;;5046788;28;20124;-72
2023/03/09 02:41:19;;;;;;;11.18;8.20;;;1.40;99.90;;;;;;5046150;28;21459;-70
2023/03/09 02:43:52;;;;;;;13.32;8.80;;;1.40;99.90;;;;;;5030031;28;20446;-72
2023/03/09 02:46:18;;;;;;;15.00;9.10;;;1.40;99.90;;;;;;5047797;28;20051;-68
2023/03/09 02:48:44;;;;;;;13.13;8.85;;;1.40;99.90;;;;;;5049941;28;20072;-72
2023/03/09 02:51:09;;;;;;;12.48;8.95;;;1.40;99.90;;;;;;5054901;28;20579;-70
2023/03/09 02:53:35;;;;;;;12.68;8.73;;;1.40;99.90;;;;;;5085624;28;20060;-72
2023/03/09 02:56:02;;;;;;;12.05;8.95;;;1.40;99.90;;;;;;5055306;28;20044;-68
2023/03/09 02:58:27;;;;;;;12.18;9.52;;;1.50;99.90;;;;;;5055592;28;20110;-71
2023/03/09 03:00:53;;;;;;;12.15;8.98;;;1.50;99.90;;;;;;5055110;28;20069;-68
2023/03/09 03:03:20;;;;;;;11.95;8.45;;;1.50;99.90;;;;;;5069034;28;20454;-71
2023/03/09 03:05:46;;;;;;;12.45;8.88;;;1.50;99.90;;;;;;5055034;28;20045;-74
2023/03/09 03:08:12;;;;;;;11.13;8.63;;;1.50;99.90;;;;;;5054132;28;20041;-69
2023/03/09 03:10:38;;;;;;;10.90;8.00;;;1.50;99.90;;;;;;5055803;28;20565;-72
2023/03/09 03:13:04;;;;;;;11.75;8.77;;;1.50;99.90;;;;;;5052610;28;20053;-71
2023/03/09 03:15:29;;;;;;;12.07;8.18;;;1.50;99.90;;;;;;5039001;28;20049;-70
2023/03/09 03:17:55;;;;;;;11.75;8.38;;;1.50;99.90;;;;;;5053116;28;20585;-73
2023/03/09 03:20:20;;;;;;;12.05;8.68;;;1.60;99.90;;;;;;5054034;28;20115;-69
2023/03/09 03:22:47;;;;;;;11.55;7.60;;;1.50;99.90;;;;;;5053300;28;20052;-71
2023/03/09 03:25:13;;;;;;;10.90;8.23;;;1.60;99.90;;;;;;5039017;28;20045;-71
2023/03/09 03:27:39;;;;;;;11.30;8.75;;;1.60;99.90;;;;;;5052401;28;20035;-71
2023/03/09 03:30:06;;;;;;;11.20;8.60;;;1.60;99.90;;;;;;5055284;28;20043;-71
2023/03/09 03:32:32;;;;;;;10.95;8.27;;;1.60;99.90;;;;;;5053592;28;20047;-70
2023/03/09 03:34:58;;;;;;;11.18;8.00;;;1.60;99.90;;;;;;5037475;28;20047;-72
2023/03/09 03:37:23;;;;;;;10.18;7.72;;;1.60;99.90;;;;;;5055471;28;20041;-71
2023/03/09 03:39:49;;;;;;;10.95;8.27;;;1.50;99.90;;;;;;5030592;28;20404;-69
2023/03/09 03:42:15;;;;;;;13.02;8.10;;;1.60;99.90;;;;;;5043078;28;20033;-70
2023/03/09 03:44:40;;;;;;;11.73;8.20;;;1.60;99.90;;;;;;5054753;28;20036;-70
2023/03/09 03:47:06;;;;;;;10.55;7.88;;;1.60;99.90;;;;;;5048934;28;20060;-68
2023/03/09 03:49:32;;;;;;;10.57;8.40;;;1.60;99.90;;;;;;5052094;28;20033;-73
2023/03/09 03:51:57;;;;;;;10.15;8.10;;;1.60;99.90;;;;;;5053560;28;20099;-72
2023/03/09 03:54:23;;;;;;;11.32;8.52;;;1.60;99.90;;;;;;5052598;28;20124;-71
2023/03/09 03:56:48;;;;;;;10.35;8.00;;;1.60;99.90;;;;;;5055006;28;20051;-70
2023/03/09 03:59:14;;;;;;;11.82;8.20;;;1.70;99.90;;;;;;5047657;28;20039;-74
2023/03/09 04:01:40;;;;;;;9.93;8.00;;;1.60;99.90;;;;;;5036093;28;20045;-71
2023/03/09 04:04:05;;;;;;;9.60;7.68;;;1.60;99.90;;;;;;5050530;28;20104;-70
2023/03/09 04:06:32;;;;;;;10.57;7.28;;;1.70;99.90;;;;;;5049814;28;20045;-71
2023/03/09 04:08:58;;;;;;;10.55;7.75;;;1.60;99.90;;;;;;5051985;28;20045;-68
2023/03/09 04:11:24;;;;;;;13.60;7.78;;;1.70;99.90;;;;;;5050272;28;20060;-68
2023/03/09 04:13:51;;;;;;;11.60;7.80;;;1.70;99.90;;;;;;5051734;28;20072;-71
2023/03/09 04:16:17;;;;;;;10.80;8.10;;;1.70;99.90;;;;;;5051699;28;20045;-67
2023/03/09 04:18:43;;;;;;;11.00;7.50;;;1.70;99.90;;;;;;5051934;28;20147;-71
2023/03/09 04:21:08;;;;;;;11.88;8.02;;;1.70;99.90;;;;;;5049549;28;20124;-69
2023/03/09 04:23:34;;;;;;;9.73;7.55;;;1.70;99.90;;;;;;5051833;28;20048;-71
2023/03/09 04:26:04;;;;;;;9.35;7.32;;;1.70;99.90;;;;;;5050510;28;20391;-68
2023/03/09 04:28:29;;;;;;;10.90;7.40;;;1.70;99.90;;;;;;5051066;28;20033;-69
2023/03/09 04:30:55;;;;;;;10.00;7.45;;;1.70;99.90;;;;;;5032502;28;20041;-71
2023/03/09 04:33:21;;;;;;;11.38;8.38;;;1.70;99.90;;;;;;5052030;28;20037;-69
2023/03/09 04:35:47;;;;;;;13.52;8.60;;;1.70;99.90;;;;;;5048189;28;20381;-70
2023/03/09 04:38:13;;;;;;;11.15;8.35;;;1.70;99.90;;;;;;5034894;28;20487;-71
2023/03/09 04:40:39;;;;;;;11.45;8.10;;;1.70;99.90;;;;;;5048743;28;20037;-71
2023/03/09 04:43:06;;;;;;;11.57;8.88;;;1.70;99.90;;;;;;5047923;28;20040;-71
2023/03/09 04:45:31;;;;;;;11.45;8.68;;;1.70;99.90;;;;;;5052086;28;20111;-68
2023/03/09 04:47:57;;;;;;;11.27;8.93;;;1.70;99.90;;;;;;5048779;28;20515;-70
2023/03/09 04:50:23;;;;;;;12.77;8.68;;;1.60;99.90;;;;;;5047719;28;20044;-69
2023/03/09 04:52:52;;;;;;;12.52;8.45;;;1.60;99.90;;;;;;5047819;28;20044;-69
2023/03/09 04:55:18;;;;;;;12.07;8.73;;;1.60;99.90;;;;;;5032338;28;20036;-68
2023/03/09 04:57:43;;;;;;;10.93;8.68;;;1.60;99.90;;;;;;5051341;28;20772;-70
2023/03/09 05:00:10;;;;;;;12.70;8.98;;;1.60;99.90;;;;;;5033573;28;20124;-70
2023/03/09 05:02:40;;;;;;;13.02;9.52;;;1.60;99.90;;;;;;5049248;28;20037;-73
2023/03/09 05:05:08;;;;;;;12.35;8.80;;;1.60;99.90;;;;;;5048804;28;20037;-69
2023/03/09 05:07:34;;;;;;;11.70;8.50;;;1.60;99.90;;;;;;5067480;28;20040;-73
2023/03/09 05:10:00;;;;;;;12.55;9.52;;;1.60;99.90;;;;;;5048167;28;20050;-71
2023/03/09 05:12:31;;;;;;;13.00;9.70;;;1.60;99.90;;;;;;5050908;28;20040;-72
2023/03/09 05:14:59;;;;;;;15.38;9.73;;;1.60;99.90;;;;;;5033544;28;20488;-70
2023/03/09 05:17:25;;;;;;;13.05;9.68;;;1.50;99.90;;;;;;5048506;28;20045;-70
2023/03/09 05:19:51;;;;;;;12.35;9.50;;;1.50;99.90;;;;;;5052151;28;20493;-73
2023/03/09 05:22:17;;;;;;;13.15;9.43;;;1.50;99.90;;;;;;5047635;28;20055;-70
2023/03/09 05:24:43;;;;;;;12.23;9.30;;;1.50;99.90;;;;;;5051111;28;20051;-70
2023/03/09 05:27:09;;;;;;;13.82;9.82;;;1.50;99.90;;;;;;5046687;28;20032;-74
2023/03/09 05:29:34;;;;;;;13.85;9.93;;;1.50;99.90;;;;;;5050134;28;20479;-70
2023/03/09 05:32:00;;;;;;;16.15;10.35;;;1.50;99.90;;;;;;5044663;28;20517;-71
2023/03/09 05:34:26;;;;;;;12.70;10.00;;;1.40;99.90;;;;;;5050101;28;20427;-68
2023/03/09 05:36:51;;;;;;;16.23;10.52;;;1.40;99.90;;;;;;5049287;28;20049;-72
2023/03/09 05:39:17;;;;;;;13.40;9.93;;;1.50;99.90;;;;;;5049801;28;20068;-70
2023/03/09 05:41:43;;;;;;;13.07;9.60;;;1.50;99.90;;;;;;5045836;28;20108;-70
2023/03/09 05:44:08;;;;;;;14.65;9.88;;;1.40;99.90;;;;;;5050188;28;20461;-71
2023/03/09 05:46:34;;;;;;;13.65;10.57;;;1.50;99.90;;;;;;5041105;28;20498;-68
2023/03/09 05:49:00;;;;;;;16.00;11.18;;;1.50;99.90;;;;;;5041269;28;20049;-71
2023/03/09 05:51:25;;;;;;;15.23;10.98;;;1.50;99.90;;;;;;5048227;28;20033;-68
2023/03/09 05:53:51;;;;;;;14.77;10.77;;;1.50;99.90;;;;;;5049358;28;20041;-70
2023/03/09 05:56:16;;;;;;;13.63;10.05;;;1.50;99.90;;;;;;5032377;28;20053;-71
2023/03/09 05:58:42;;;;;;;17.88;10.95;;;1.50;99.90;;;;;;5047176;28;20440;-70
2023/03/09 06:01:20;;;;;;;15.30;11.00;;;1.50;99.90;;;;;;5047590;28;20110;-68
2023/03/09 06:03:45;;;;;;;15.95;11.38;;;1.50;99.90;;;;;;5049309;28;20407;-71
2023/03/09 06:06:11;;;;;;;16.67;11.60;;;1.50;99.90;;;;;;5050246;28;20045;-71
2023/03/09 06:08:37;;;;;;;18.13;11.85;;;1.50;99.90;;;;;;5079274;28;20076;-69
2023/03/09 06:11:03;;;;;;;16.25;11.35;;;1.50;99.90;;;;;;5048300;28;20114;-72
2023/03/09 06:13:28;;;;;;;16.08;12.10;;;1.50;99.90;;;;;;5030198;28;20135;-70
2023/03/09 06:15:54;;;;;;;15.85;11.95;;;1.50;99.90;;;;;;5048431;28;20032;-71
2023/03/09 06:18:20;;;;;;;18.98;12.52;;;1.50;99.90;;;;;;5030697;28;20048;-68
2023/03/09 06:20:47;;;;;;;18.80;12.15;;;1.50;99.90;;;;;;5047921;28;20453;-68
2023/03/09 06:23:13;;;;;;;17.45;11.90;;;1.50;99.90;;;;;;5045420;28;20036;-70
2023/03/09 06:25:39;;;;;;;16.83;12.23;;;1.60;99.90;;;;;;5047668;28;20040;-71
2023/03/09 06:28:05;;;;;;;18.40;12.25;;;1.60;99.90;;;;;;5033845;28;20437;-72
2023/03/09 06:30:31;;;;;;;20.60;13.25;;;1.60;99.90;;;;;;5048647;28;20041;-68
2023/03/09 06:32:56;;;;;;;17.48;12.65;;;1.60;99.90;;;;;;5031257;28;20114;-70
2023/03/09 06:35:25;;;;;;;16.30;12.13;;;1.70;99.90;;;;;;5048513;28;20311;-69
2023/03/09 06:37:51;;;;;;;19.20;12.23;;;1.70;99.90;;;;;;5045458;28;20102;-68
2023/03/09 06:40:17;;;;;;;17.25;12.75;;;1.70;99.90;;;;;;5046296;28;20749;-70
2023/03/09 06:42:45;;;;;;;17.23;12.13;;;1.70;99.90;;;;;;5044475;28;20503;-69
2023/03/09 06:45:10;;;;;;;19.25;13.20;;;1.80;99.90;;;;;;5048373;28;20068;-69
2023/03/09 06:47:36;;;;;;;20.05;13.95;;;1.80;99.90;;;;;;5048120;28;20079;-69
2023/03/09 06:50:02;;;;;;;18.50;12.38;;;1.80;99.90;;;;;;5046068;28;20033;-68
2023/03/09 06:52:28;;;;;;;19.02;13.18;;;1.80;99.90;;;;;;5044133;28;20092;-68
2023/03/09 06:54:53;;;;;;;19.80;13.20;;;1.80;99.90;;;;;;5057584;28;20068;-69
2023/03/09 06:57:19;;;;;;;18.80;13.10;;;1.80;99.90;;;;;;5049532;28;20098;-73
2023/03/09 06:59:46;;;;;;;19.08;13.40;;;1.90;99.90;;;;;;5048261;28;20122;-68
2023/03/09 07:02:13;;;;;;;18.40;12.85;;;1.90;99.90;;;;;;5048028;28;20056;-70
2023/03/09 07:04:39;;;;;;;19.90;14.13;;;1.90;99.90;;;;;;5047282;28;20065;-68
2023/03/09 07:07:05;;;;;;;19.98;13.07;;;1.90;99.90;;;;;;5045020;28;20049;-68
2023/03/09 07:09:31;;;;;;;19.27;13.45;;;2.00;99.90;;;;;;5045122;28;20119;-67
2023/03/09 07:11:58;;;;;;;19.27;13.85;;;2.00;99.90;;;;;;5048587;28;20048;-70
2023/03/09 07:14:24;;;;;;;18.48;12.70;;;2.10;99.90;;;;;;5045908;28;20044;-70
2023/03/09 07:16:52;;;;;;;18.63;13.32;;;2.10;99.90;;;;;;5031641;28;20124;-68
2023/03/09 07:19:18;;;;;;;19.15;14.15;;;2.10;99.90;;;;;;5047472;28;20106;-69
2023/03/09 07:21:43;;;;;;;19.95;13.60;;;2.10;99.90;;;;;;5047874;28;20033;-69
2023/03/09 07:24:09;;;;;;;19.15;13.23;;;2.10;99.90;;;;;;5046262;28;20049;-69
2023/03/09 07:26:34;;;;;;;19.90;14.18;;;2.20;99.90;;;;;;5048613;28;20029;-68
2023/03/09 07:29:00;;;;;;;21.13;13.45;;;2.10;99.90;;;;;;5045976;28;20061;-68
2023/03/09 07:31:28;;;;;;;21.10;13.80;;;2.20;99.90;;;;;;5038057;28;20038;-72
2023/03/09 07:33:55;;;;;;;18.73;13.57;;;2.20;99.90;;;;;;5033527;28;20048;-68
2023/03/09 07:36:20;;;;;;;18.63;13.15;;;2.30;99.90;;;;;;5045076;28;20507;-71
2023/03/09 07:38:47;;;;;;;18.83;13.25;;;2.30;99.90;;;;;;5042781;28;20041;-69
2023/03/09 07:41:13;;;;;;;18.67;14.18;;;2.20;99.90;;;;;;5047251;28;20049;-68
2023/03/09 07:43:45;;;;;;;18.70;13.52;;;2.30;99.90;;;;;;5043601;28;20112;-69
2023/03/09 07:46:13;;;;;;;19.58;14.02;;;2.30;99.90;;;;;;5071072;28;20033;-70
2023/03/09 07:48:39;;;;;;;17.17;12.77;;;2.30;99.90;;;;;;5043009;28;20047;-70
2023/03/09 07:51:06;;;;;;;18.80;13.05;;;2.40;99.90;;;;;;5082235;28;20387;-71
2023/03/09 07:53:34;;;;;;;20.10;14.35;;;2.40;99.90;;;;;;5050582;28;20476;-69
2023/03/09 07:56:03;;;;;;;20.52;14.50;;;2.40;99.90;;;;;;5050145;28;20077;-70
2023/03/09 07:58:37;;;;;;;18.30;12.82;;;2.40;99.90;;;;;;5047732;28;20699;-70
2023/03/09 08:01:04;;;;;;;19.25;13.07;;;2.40;99.90;;;;;;5048551;28;20045;-70
2023/03/09 08:03:30;;;;;;;19.55;14.07;;;2.40;99.90;;;;;;5045740;28;20475;-68
2023/03/09 08:05:56;;;;;;;18.50;13.23;;;2.50;99.90;;;;;;5047168;28;20053;-69
2023/03/09 08:08:22;;;;;;;17.75;13.15;;;2.50;99.90;;;;;;5052108;28;20064;-70
2023/03/09 08:10:50;;;;;;;18.40;13.13;;;2.50;99.90;;;;;;5051808;28;20033;-68
2023/03/09 08:13:16;;;;;;;18.60;13.50;;;2.50;99.90;;;;;;5051498;28;20120;-70
2023/03/09 08:15:42;;;;;;;18.27;13.80;;;2.60;99.90;;;;;;5052119;28;20483;-70
2023/03/09 08:18:07;;;;;;;18.08;13.05;;;2.50;99.90;;;;;;5035025;28;20123;-67
2023/03/09 08:20:33;;;;;;;17.08;12.63;;;2.60;99.90;;;;;;5051815;28;20037;-68
2023/03/09 08:22:59;;;;;;;18.35;13.70;;;2.70;99.90;;;;;;5051565;28;20049;-70
2023/03/09 08:25:26;;;;;;;19.30;13.82;;;2.70;99.90;;;;;;5051499;28;20067;-70
2023/03/09 08:27:52;;;;;;;16.55;12.68;;;2.80;99.90;;;;;;5035069;28;20103;-68
2023/03/09 08:30:20;;;;;;;17.08;13.15;;;2.90;99.90;;;;;;5051287;28;20044;-71
2023/03/09 08:32:47;;;;;;;17.73;12.57;;;3.00;99.90;;;;;;5051786;28;20041;-69
2023/03/09 08:35:18;;;;;;;22.02;14.35;;;3.10;99.90;;;;;;5051164;28;20117;-71
2023/03/09 08:37:44;;;;;;;28.05;16.58;;;3.10;99.90;;;;;;5051424;28;20033;-69
2023/03/09 08:40:11;;;;;;;17.25;12.93;;;3.20;99.90;;;;;;5051204;28;20037;-68
2023/03/09 08:42:36;;;;;;;18.48;13.52;;;3.40;99.90;;;;;;5051657;28;20055;-70
2023/03/09 08:45:03;;;;;;;16.63;12.35;;;3.40;99.90;;;;;;5050880;28;20049;-70
2023/03/09 08:47:30;;;;;;;16.30;12.18;;;3.50;99.90;;;;;;5051127;28;20044;-68
2023/03/09 08:49:55;;;;;;;15.68;11.43;;;3.60;99.90;;;;;;5051248;28;20033;-70
2023/03/09 08:52:21;;;;;;;14.90;11.45;;;3.70;99.90;;;;;;5051248;28;20094;-69
2023/03/09 08:54:49;;;;;;;14.85;11.52;;;3.70;99.90;;;;;;5051402;28;20045;-70
2023/03/09 08:57:15;;;;;;;15.20;11.23;;;3.70;99.90;;;;;;5050920;28;20049;-68
2023/03/09 08:59:41;;;;;;;15.07;11.88;;;3.80;99.90;;;;;;5051267;28;20514;-70
2023/03/09 09:02:13;;;;;;;14.32;11.13;;;3.80;99.90;;;;;;5050901;28;20102;-67
2023/03/09 09:04:42;;;;;;;14.25;11.10;;;3.80;99.90;;;;;;5050957;28;20531;-68
2023/03/09 09:07:08;;;;;;;14.38;10.95;;;3.90;99.90;;;;;;5050987;28;20045;-69
2023/03/09 09:09:34;;;;;;;14.13;10.45;;;3.90;99.90;;;;;;5050528;28;20045;-68
2023/03/09 09:11:59;;;;;;;15.63;11.43;;;3.80;99.90;;;;;;5050764;28;20098;-68
2023/03/09 09:14:25;;;;;;;15.18;11.50;;;3.80;99.90;;;;;;5050472;28;20052;-69
2023/03/09 09:16:51;;;;;;;14.00;10.88;;;3.80;99.90;;;;;;5050741;28;20049;-69
2023/03/09 09:19:17;;;;;;;14.90;10.65;;;3.90;99.90;;;;;;5051758;28;20128;-70
2023/03/09 09:21:43;;;;;;;13.73;10.77;;;3.90;99.90;;;;;;5050595;28;20068;-71
2023/03/09 09:24:08;;;;;;;16.42;11.45;;;4.00;99.90;;;;;;5050397;28;20436;-69
2023/03/09 09:26:34;;;;;;;14.27;11.38;;;4.10;99.90;;;;;;5050262;28;20037;-70
2023/03/09 09:29:01;;;;;;;13.90;10.88;;;4.10;99.90;;;;;;5050394;28;20037;-69
2023/03/09 09:31:27;;;;;;;14.23;10.98;;;4.10;99.90;;;;;;5050091;28;20041;-70
2023/03/09 09:33:53;;;;;;;15.18;11.25;;;4.00;99.90;;;;;;5050556;28;20052;-68
2023/03/09 09:36:20;;;;;;;15.68;12.05;;;4.00;99.90;;;;;;5033521;28;20088;-70
2023/03/09 09:38:47;;;;;;;15.43;12.02;;;4.00;99.90;;;;;;5050437;28;20040;-70
2023/03/09 09:41:37;;;;;;;14.63;11.40;;;4.10;99.90;;;;;;5050212;28;20073;-68
2023/03/09 09:44:08;;;;;;;15.68;11.52;;;4.10;99.90;;;;;;5051411;28;20075;-69
2023/03/09 09:46:35;;;;;;;15.10;11.45;;;4.10;99.90;;;;;;5050171;28;20514;-70
2023/03/09 09:49:03;;;;;;;14.05;11.10;;;4.10;99.90;;;;;;5050157;28;20124;-70
2023/03/09 09:51:38;;;;;;;17.23;12.90;;;4.10;99.90;;;;;;5033162;28;20408;-69
2023/03/09 09:54:21;;;;;;;15.23;11.20;;;4.10;99.90;;;;;;5050049;28;20044;-70
2023/03/09 09:56:50;;;;;;;15.73;11.82;;;4.10;99.90;;;;;;5048977;28;20040;-69
2023/03/09 09:59:25;;;;;;;14.40;11.48;;;4.10;99.90;;;;;;5049753;28;20049;-70
2023/03/09 10:02:07;;;;;;;14.32;11.55;;;4.10;99.90;;;;;;5049801;28;20125;-70
2023/03/09 10:04:37;;;;;;;16.08;12.05;;;4.10;99.90;;;;;;5049566;28;20057;-69
2023/03/09 10:07:18;;;;;;;19.02;13.88;;;4.10;99.90;;;;;;5049841;28;20120;-67
2023/03/09 10:09:48;;;;;;;18.42;12.73;;;4.00;99.90;;;;;;5049582;28;20398;-69
2023/03/09 10:12:16;;;;;;;14.95;11.98;;;4.00;99.90;;;;;;5049564;28;20098;-70
2023/03/09 10:14:51;;;;;;;15.13;11.65;;;4.00;99.90;;;;;;5049604;28;20045;-69
2023/03/09 10:17:27;;;;;;;15.20;11.90;;;4.00;99.90;;;;;;5049548;28;20041;-71
2023/03/09 10:19:54;;;;;;;15.93;11.98;;;4.00;99.90;;;;;;5049438;28;20033;-70
2023/03/09 10:22:24;;;;;;;14.95;11.25;;;4.00;99.90;;;;;;5033106;28;20056;-70
2023/03/09 10:24:55;;;;;;;15.32;11.98;;;4.00;99.90;;;;;;5049150;28;20102;-68
2023/03/09 10:27:24;;;;;;;16.48;12.45;;;4.00;99.90;;;;;;5049690;28;20033;-69
2023/03/09 10:30:02;;;;;;;16.20;12.00;;;4.00;99.90;;;;;;5049446;28;20442;-69
2023/03/09 10:32:40;;;;;;;16.75;11.48;;;4.00;99.90;;;;;;5049369;28;20033;-69
2023/03/09 10:35:33;;;;;;;14.55;11.38;;;4.00;99.90;;;;;;5049290;28;20128;-68
2023/03/09 10:37:59;;;;;;;16.30;12.07;;;4.10;99.90;;;;;;5049380;28;20040;-67
2023/03/09 10:40:36;;;;;;;15.85;11.90;;;4.10;99.90;;;;;;5049202;28;20090;-68
2023/03/09 10:43:04;;;;;;;17.38;12.30;;;4.20;99.90;;;;;;5032775;28;20040;-71
2023/03/09 10:45:33;;;;;;;17.10;12.55;;;4.20;99.90;;;;;;5049085;28;20052;-70
2023/03/09 10:48:00;;;;;;;16.70;12.00;;;4.30;99.90;;;;;;5049177;28;20040;-68
2023/03/09 10:50:40;;;;;;;19.13;13.00;;;4.30;99.90;;;;;;5049117;28;20357;-69
2023/03/09 10:53:27;;;;;;;18.58;13.23;;;4.30;99.90;;;;;;5032789;28;20051;-70
2023/03/09 10:55:58;;;;;;;15.77;11.77;;;4.40;99.90;;;;;;5032270;28;20041;-68
2023/03/09 10:58:23;;;;;;;15.73;11.48;;;4.40;99.90;;;;;;5049116;28;20033;-68
2023/03/09 11:00:54;;;;;;;16.58;12.60;;;4.40;99.90;;;;;;5048724;28;20538;-68
2023/03/09 11:03:23;;;;;;;15.35;12.30;;;4.40;99.90;;;;;;5049026;28;20049;-69
2023/03/09 11:05:49;;;;;;;15.60;12.07;;;4.40;99.90;;;;;;5048852;28;20045;-69
2023/03/09 11:08:29;;;;;;;15.23;12.73;;;4.40;99.90;;;;;;5050678;28;20041;-67
2023/03/09 11:11:15;;;;;;;15.95;12.60;;;4.40;99.90;;;;;;5053371;28;20052;-68
2023/03/09 11:13:44;;;;;;;16.83;11.63;;;4.40;99.90;;;;;;5036382;28;20088;-70
2023/03/09 11:16:25;;;;;;;15.38;12.20;;;4.50;99.90;;;;;;5052930;28;20053;-69
2023/03/09 11:19:14;;;;;;;17.25;12.23;;;4.60;99.90;;;;;;5052475;28;20044;-69
2023/03/09 11:21:56;;;;;;;18.25;12.65;;;4.60;99.90;;;;;;5052742;28;20041;-70
2023/03/09 11:24:26;;;;;;;14.05;11.20;;;4.60;99.90;;;;;;5036111;28;20155;-69
2023/03/09 11:27:07;;;;;;;17.05;11.93;;;4.50;99.90;;;;;;5036103;28;20041;-69
2023/03/09 11:29:52;;;;;;;15.98;12.05;;;4.60;99.90;;;;;;5052666;28;20035;-69
2023/03/09 11:32:18;;;;;;;13.38;10.70;;;4.60;99.90;;;;;;5052670;28;20086;-67
2023/03/09 11:34:45;;;;;;;16.33;11.85;;;4.50;99.90;;;;;;5052652;28;20438;-70
2023/03/09 11:37:26;;;;;;;15.65;11.77;;;4.60;99.90;;;;;;5052537;28;20087;-71
2023/03/09 11:40:10;;;;;;;16.42;12.40;;;4.50;99.90;;;;;;5052211;28;20076;-68
2023/03/09 11:42:53;;;;;;;14.93;11.88;;;4.40;99.90;;;;;;5052571;28;20076;-69
2023/03/09 11:45:21;;;;;;;16.38;12.25;;;4.30;99.90;;;;;;5052503;28;20045;-70
2023/03/09 11:47:59;;;;;;;14.45;10.88;;;4.30;99.90;;;;;;5052438;28;20045;-70
2023/03/09 11:50:54;;;;;;;16.00;12.02;;;4.30;99.90;;;;;;5052307;28;20133;-69
2023/03/09 11:53:36;;;;;;;19.35;12.45;;;4.30;99.90;;;;;;5052307;28;20064;-71
2023/03/09 11:56:20;;;;;;;15.07;11.70;;;4.30;99.90;;;;;;5052125;28;20403;-69
2023/03/09 11:59:00;;;;;;;17.38;12.93;;;4.30;99.90;;;;;;5052263;28;20048;-68
2023/03/09 12:01:38;;;;;;;16.65;12.63;;;4.30;99.90;;;;;;5052012;28;20487;-69
2023/03/09 12:04:07;;;;;;;15.57;11.75;;;4.40;99.90;;;;;;5053137;28;20057;-71
2023/03/09 12:06:48;;;;;;;16.33;12.18;;;4.50;99.90;;;;;;5052069;28;20040;-72
2023/03/09 12:09:26;;;;;;;16.17;12.32;;;4.60;99.90;;;;;;5051736;28;20036;-69
2023/03/09 12:12:21;;;;;;;16.40;12.43;;;4.60;99.90;;;;;;5052141;28;20086;-68
2023/03/09 12:15:09;;;;;;;17.33;12.70;;;4.70;99.90;;;;;;5048553;28;20053;-71
2023/03/09 12:17:51;;;;;;;17.40;11.88;;;4.70;99.90;;;;;;5035151;28;20075;-71
2023/03/09 12:20:23;;;;;;;15.13;11.60;;;4.70;99.90;;;;;;5034701;28;20577;-69
2023/03/09 12:22:49;;;;;;;;;;;4.70;99.90;;;;;;5052274;28;20119;-72
2023/03/09 12:25:22;;;;;;;15.13;11.75;;;4.70;99.90;;;;;;5051443;28;20000;-70
2023/03/09 12:27:59;;;;;;;;;;;4.70;99.90;;;;;;5035868;28;20480;-70
2023/03/09 12:30:50;;;;;;;15.82;11.80;;;4.70;99.90;;;;;;5051601;28;19916;-70
2023/03/09 12:33:41;;;;;;;15.02;10.73;;;4.70;99.90;;;;;;5051348;28;20070;-68
2023/03/09 12:36:39;;;;;;;14.30;10.73;;;4.70;99.90;;;;;;5051407;28;20045;-69
2023/03/09 12:39:31;;;;;;;16.00;11.48;;;4.70;99.90;;;;;;5051116;28;20045;-68
2023/03/09 12:42:03;;;;;;;17.67;12.43;;;4.80;99.90;;;;;;5051178;28;20407;-69
2023/03/09 12:44:46;;;;;;;14.35;11.15;;;4.80;99.90;;;;;;5051156;28;20037;-72
2023/03/09 12:47:24;;;;;;;17.65;12.77;;;4.90;99.90;;;;;;5051051;28;20053;-68
2023/03/09 12:49:56;;;;;;;16.70;12.95;;;4.80;99.90;;;;;;5051317;28;20037;-69
2023/03/09 12:52:52;;;;;;;19.27;13.67;;;4.90;99.90;;;;;;5051189;28;20072;-70